createdAt,value
2023-02-14T00:00:04.488Z,9.60
2023-02-14T00:02:50.234Z,8.07
2023-02-14T00:05:35.731Z,7.87
2023-02-14T00:08:23.315Z,8.70
2023-02-14T00:11:10.843Z,8.53
2023-02-14T00:14:18.214Z,9.90
2023-02-14T00:17:05.012Z,7.80
2023-02-14T00:19:52.597Z,8.50
2023-02-14T00:22:40.536Z,8.57
2023-02-14T00:25:26.355Z,8.20
2023-02-14T00:28:11.840Z,8.60
2023-02-14T00:31:00.815Z,8.40
2023-02-14T00:33:46.732Z,9.40
2023-02-14T00:36:32.566Z,8.40
2023-02-14T00:39:18.631Z,8.50
2023-02-14T00:42:04.566Z,8.00
2023-02-14T00:44:50.355Z,8.70
2023-02-14T00:47:35.792Z,8.90
2023-02-14T00:50:21.166Z,9.30
2023-02-14T00:53:09.234Z,8.20
2023-02-14T00:55:55.048Z,8.57
2023-02-14T00:58:40.677Z,8.90
2023-02-14T01:01:28.567Z,8.90
2023-02-14T01:04:14.261Z,7.80
2023-02-14T01:06:59.574Z,9.67
2023-02-14T01:09:44.937Z,8.90
2023-02-14T01:12:30.378Z,7.63
2023-02-14T01:15:16.141Z,9.30
2023-02-14T01:18:01.511Z,8.67
2023-02-14T01:20:49.679Z,7.10
2023-02-14T01:23:35.014Z,8.47
2023-02-14T01:26:22.483Z,9.50
2023-02-14T01:29:08.696Z,9.20
2023-02-14T01:31:54.025Z,9.07
2023-02-14T01:34:41.703Z,8.63
2023-02-14T01:37:27.379Z,8.43
2023-02-14T01:40:13.979Z,8.03
2023-02-14T01:42:59.506Z,8.40
2023-02-14T01:45:45.190Z,8.70
2023-02-14T01:48:31.307Z,8.80
2023-02-14T01:51:21.658Z,8.60
2023-02-14T01:54:09.113Z,8.23
2023-02-14T01:57:07.017Z,7.30
2023-02-14T01:59:55.771Z,8.00
2023-02-14T02:02:43.425Z,9.10
2023-02-14T02:05:29.222Z,7.40
2023-02-14T02:08:17.429Z,7.80
2023-02-14T02:11:03.583Z,7.83
2023-02-14T02:13:49.327Z,9.57
2023-02-14T02:16:59.750Z,8.33
2023-02-14T02:20:04.383Z,7.80
2023-02-14T02:23:38.429Z,7.33
2023-02-14T02:26:42.224Z,7.97
2023-02-14T02:29:57.959Z,8.70
2023-02-14T02:33:18.677Z,9.30
2023-02-14T02:36:13.411Z,8.90
2023-02-14T02:39:20.719Z,9.30
2023-02-14T02:42:25.537Z,8.70
2023-02-14T02:45:32.729Z,9.13
2023-02-14T02:48:23.358Z,8.90
2023-02-14T02:51:34.801Z,9.20
2023-02-14T02:54:28.224Z,8.97
2023-02-14T02:57:21.919Z,7.67
2023-02-14T03:00:13.655Z,9.03
2023-02-14T03:03:18.106Z,8.53
2023-02-14T03:06:04.244Z,8.37
2023-02-14T03:08:49.784Z,8.40
2023-02-14T03:11:37.819Z,7.60
2023-02-14T03:14:33.380Z,8.53
2023-02-14T03:17:43.674Z,8.17
2023-02-14T03:20:57.508Z,7.73
2023-02-14T03:23:59.012Z,9.10
2023-02-14T03:26:44.274Z,8.60
2023-02-14T03:29:44.054Z,8.30
2023-02-14T03:32:41.351Z,9.07
2023-02-14T03:35:33.018Z,8.67
2023-02-14T03:38:34.574Z,8.43
2023-02-14T03:41:24.923Z,9.03
2023-02-14T03:44:13.126Z,8.00
2023-02-14T03:47:14.822Z,8.47
2023-02-14T03:50:06.455Z,9.80
2023-02-14T03:52:54.012Z,8.37
2023-02-14T03:55:58.316Z,8.77
2023-02-14T03:58:48.126Z,8.87
2023-02-14T04:01:38.460Z,9.20
2023-02-14T04:04:27.978Z,8.90
2023-02-14T04:07:21.751Z,9.57
2023-02-14T04:10:07.960Z,9.00
2023-02-14T04:12:53.929Z,8.40
2023-02-14T04:15:42.750Z,8.70
2023-02-14T04:18:47.429Z,8.30
2023-02-14T04:21:33.020Z,8.63
2023-02-14T04:24:19.000Z,8.83
2023-02-14T04:27:11.020Z,8.80
2023-02-14T04:29:56.919Z,8.00
2023-02-14T04:32:45.436Z,8.23
2023-02-14T04:35:31.121Z,8.70
2023-02-14T04:38:19.593Z,8.67
2023-02-14T04:41:04.991Z,9.40
2023-02-14T04:43:52.802Z,8.57
2023-02-14T04:46:40.418Z,8.10
2023-02-14T04:49:26.248Z,8.53
2023-02-14T04:52:13.148Z,8.97
2023-02-14T04:55:00.968Z,9.97
2023-02-14T04:57:46.182Z,9.20
2023-02-14T05:00:31.752Z,9.20
2023-02-14T05:03:17.660Z,8.70
2023-02-14T05:06:02.972Z,8.97
2023-02-14T05:08:50.322Z,9.60
2023-02-14T05:11:35.649Z,9.50
2023-02-14T05:14:24.235Z,9.30
2023-02-14T05:17:09.680Z,8.17
2023-02-14T05:19:55.254Z,8.90
2023-02-14T05:22:43.134Z,9.60
2023-02-14T05:25:28.934Z,9.40
2023-02-14T05:28:14.568Z,9.73
2023-02-14T05:31:02.285Z,9.43
2023-02-14T05:33:51.426Z,9.13
2023-02-14T05:36:39.425Z,7.93
2023-02-14T05:39:27.109Z,9.30
2023-02-14T05:42:12.519Z,8.90
2023-02-14T05:45:00.120Z,8.20
2023-02-14T05:47:45.495Z,8.50
2023-02-14T05:50:30.862Z,8.77
2023-02-14T05:53:18.705Z,8.77
2023-02-14T05:56:05.092Z,8.70
2023-02-14T05:58:50.530Z,10.17
2023-02-14T06:01:36.052Z,8.87
2023-02-14T06:04:22.051Z,9.27
2023-02-14T06:07:07.806Z,8.73
2023-02-14T06:09:52.970Z,9.73
2023-02-14T06:12:38.358Z,9.00
2023-02-14T06:15:24.732Z,10.63
2023-02-14T06:18:10.465Z,9.77
2023-02-14T06:20:58.405Z,8.27
2023-02-14T06:23:47.001Z,9.80
2023-02-14T06:26:36.108Z,8.57
2023-02-14T06:29:21.616Z,10.60
2023-02-14T06:32:09.643Z,9.87
2023-02-14T06:34:55.152Z,9.27
2023-02-14T06:37:45.299Z,9.90
2023-02-14T06:40:30.880Z,10.20
2023-02-14T06:43:16.210Z,9.57
2023-02-14T06:46:05.321Z,7.97
2023-02-14T06:48:53.265Z,8.57
2023-02-14T06:51:39.573Z,9.57
2023-02-14T06:54:25.144Z,10.67
2023-02-14T06:57:10.965Z,9.73
2023-02-14T06:59:56.840Z,9.40
2023-02-14T07:02:45.780Z,9.10
2023-02-14T07:05:32.038Z,9.33
2023-02-14T07:08:17.916Z,9.00
2023-02-14T07:11:06.642Z,9.13
2023-02-14T07:13:52.369Z,8.90
2023-02-14T07:16:37.789Z,9.43
2023-02-14T07:19:23.580Z,10.40
2023-02-14T07:22:11.200Z,8.87
2023-02-14T07:24:56.574Z,9.70
2023-02-14T07:27:41.871Z,8.40
2023-02-14T07:30:28.631Z,9.53
2023-02-14T07:33:14.242Z,9.03
2023-02-14T07:36:03.882Z,9.27
2023-02-14T07:38:51.400Z,9.20
2023-02-14T07:41:37.425Z,9.77
2023-02-14T07:44:22.843Z,9.17
2023-02-14T07:47:09.849Z,9.13
2023-02-14T07:49:55.051Z,10.63
2023-02-14T07:52:40.293Z,10.27
2023-02-14T07:55:26.357Z,10.40
2023-02-14T07:58:11.710Z,10.43
2023-02-14T08:00:57.725Z,9.80
2023-02-14T08:03:49.383Z,10.10
2023-02-14T08:06:37.368Z,9.73
2023-02-14T08:09:26.600Z,10.00
2023-02-14T08:12:30.950Z,9.03
2023-02-14T08:15:37.423Z,8.60
2023-02-14T08:18:23.268Z,9.27
2023-02-14T08:21:11.009Z,10.73
2023-02-14T08:23:56.400Z,10.33
2023-02-14T08:26:44.676Z,9.40
2023-02-14T08:29:30.594Z,9.07
2023-02-14T08:32:16.088Z,11.10
2023-02-14T08:35:01.878Z,11.00
2023-02-14T08:37:47.739Z,10.33
2023-02-14T08:40:34.297Z,9.00
2023-02-14T08:43:19.447Z,10.97
2023-02-14T08:46:05.086Z,10.00
2023-02-14T08:48:54.380Z,10.97
2023-02-14T08:51:42.061Z,11.03
2023-02-14T08:54:27.303Z,9.20
2023-02-14T08:57:12.962Z,10.70
2023-02-14T08:59:58.613Z,10.73
2023-02-14T09:02:44.500Z,12.00
2023-02-14T09:05:29.712Z,10.93
2023-02-14T09:08:15.637Z,10.00
2023-02-14T09:11:18.855Z,12.40
2023-02-14T09:14:04.706Z,10.97
2023-02-14T09:16:50.951Z,11.20
2023-02-14T09:19:37.748Z,11.10
2023-02-14T09:22:25.261Z,10.23
2023-02-14T09:25:10.876Z,9.77
2023-02-14T09:27:57.224Z,10.50
2023-02-14T09:30:42.784Z,11.20
2023-02-14T09:33:29.189Z,11.17
2023-02-14T09:36:16.987Z,10.23
2023-02-14T09:39:03.736Z,10.60
2023-02-14T09:42:06.120Z,11.37
2023-02-14T09:44:54.298Z,9.67
2023-02-14T09:47:48.936Z,11.00
2023-02-14T09:50:46.319Z,10.77
2023-02-14T09:53:52.962Z,10.07
2023-02-14T09:57:03.078Z,10.27
2023-02-14T10:00:03.092Z,9.80
2023-02-14T10:03:18.102Z,10.37
2023-02-14T10:06:23.054Z,10.57
2023-02-14T10:09:09.380Z,10.20
2023-02-14T10:11:58.107Z,9.43
2023-02-14T10:14:43.963Z,9.20
2023-02-14T10:17:36.007Z,10.43
2023-02-14T10:20:24.286Z,10.77
2023-02-14T10:23:21.600Z,10.40
2023-02-14T10:26:06.570Z,9.43
2023-02-14T10:28:54.341Z,10.87
2023-02-14T10:32:00.445Z,11.43
2023-02-14T10:34:51.400Z,9.60
2023-02-14T10:37:55.298Z,10.77
2023-02-14T10:41:10.653Z,10.13
2023-02-14T10:44:12.767Z,10.53
2023-02-14T10:47:30.636Z,10.33
2023-02-14T10:50:49.705Z,9.00
2023-02-14T10:54:02.063Z,9.57
2023-02-14T10:57:01.924Z,9.60
2023-02-14T11:00:06.714Z,10.33
2023-02-14T11:02:57.684Z,10.10
2023-02-14T11:05:47.984Z,11.17
2023-02-14T11:08:39.278Z,10.60
2023-02-14T11:11:33.157Z,9.17
2023-02-14T11:14:28.754Z,9.70
2023-02-14T11:17:29.346Z,9.83
2023-02-14T11:20:27.877Z,9.37
2023-02-14T11:23:23.528Z,9.90
2023-02-14T11:26:31.571Z,8.70
2023-02-14T11:29:25.334Z,8.37
2023-02-14T11:32:14.958Z,9.23
2023-02-14T11:35:04.187Z,8.77
2023-02-14T11:37:51.850Z,10.37
2023-02-14T11:40:39.568Z,8.20
2023-02-14T11:43:37.202Z,10.60
2023-02-14T11:46:24.050Z,10.07
2023-02-14T11:49:31.964Z,9.47
2023-02-14T11:52:19.616Z,9.30
2023-02-14T11:55:06.091Z,10.30
2023-02-14T11:57:54.631Z,10.07
2023-02-14T12:00:52.343Z,8.67
2023-02-14T12:03:46.393Z,9.47
2023-02-14T12:06:35.202Z,9.60
2023-02-14T12:09:23.865Z,9.50
2023-02-14T12:12:48.195Z,9.67
2023-02-14T12:15:44.007Z,8.80
2023-02-14T12:18:56.194Z,9.47
2023-02-14T12:21:51.412Z,8.60
2023-02-14T12:24:49.147Z,9.03
2023-02-14T12:27:47.781Z,9.97
2023-02-14T12:30:35.135Z,9.60
2023-02-14T12:33:23.499Z,8.53
2023-02-14T12:36:45.682Z,9.80
2023-02-14T12:39:58.485Z,9.97
2023-02-14T12:43:11.087Z,9.23
2023-02-14T12:46:12.823Z,9.10
2023-02-14T12:49:30.055Z,9.20
2023-02-14T12:52:32.342Z,9.30
2023-02-14T12:55:27.030Z,11.40
2023-02-14T12:58:42.189Z,9.93
2023-02-14T13:01:59.897Z,9.90
2023-02-14T13:05:02.064Z,10.17
2023-02-14T13:08:22.899Z,8.50
2023-02-14T13:11:31.717Z,9.87
2023-02-14T13:14:43.077Z,8.33
2023-02-14T13:17:40.190Z,9.80
2023-02-14T13:20:30.944Z,8.03
2023-02-14T13:23:47.885Z,9.57
2023-02-14T13:26:38.980Z,8.80
2023-02-14T13:29:27.444Z,9.30
2023-02-14T13:32:18.370Z,9.43
2023-02-14T13:35:05.083Z,8.03
2023-02-14T13:37:54.592Z,10.07
2023-02-14T13:40:41.277Z,10.23
2023-02-14T13:43:50.205Z,9.90
2023-02-14T13:46:35.466Z,8.30
2023-02-14T13:49:31.779Z,8.70
2023-02-14T13:52:44.043Z,8.10
2023-02-14T13:55:35.462Z,10.57
2023-02-14T13:58:24.307Z,9.80
2023-02-14T14:01:47.869Z,9.40
2023-02-14T14:04:35.591Z,9.40
2023-02-14T14:07:30.098Z,9.40
2023-02-14T14:10:43.027Z,9.43
2023-02-14T14:13:40.551Z,9.57
2023-02-14T14:16:28.911Z,9.20
2023-02-14T14:19:23.606Z,8.70
2023-02-14T14:22:14.884Z,8.97
2023-02-14T14:25:08.346Z,9.90
2023-02-14T14:27:56.203Z,9.73
2023-02-14T14:30:44.861Z,9.30
2023-02-14T14:33:33.649Z,9.53
2023-02-14T14:36:23.814Z,10.90
2023-02-14T14:39:12.730Z,9.53
2023-02-14T14:42:18.417Z,9.40
2023-02-14T14:45:25.064Z,9.20
2023-02-14T14:48:18.557Z,8.80
2023-02-14T14:51:05.994Z,9.17
2023-02-14T14:54:01.100Z,8.60
2023-02-14T14:56:59.291Z,9.33
2023-02-14T14:59:49.340Z,9.17
2023-02-14T15:02:35.092Z,8.10
2023-02-14T15:05:26.041Z,8.90
2023-02-14T15:08:25.006Z,7.80
2023-02-14T15:11:42.921Z,8.27
2023-02-14T15:14:33.039Z,10.00
2023-02-14T15:17:30.709Z,8.53
2023-02-14T15:20:24.433Z,9.00
2023-02-14T15:23:22.469Z,8.13
2023-02-14T15:26:10.770Z,8.97
2023-02-14T15:29:01.906Z,8.80
2023-02-14T15:31:50.673Z,8.73
2023-02-14T15:34:39.825Z,10.30
2023-02-14T15:37:26.044Z,8.83
2023-02-14T15:40:29.381Z,8.50
2023-02-14T15:43:17.945Z,9.90
2023-02-14T15:46:30.900Z,9.70
2023-02-14T15:49:21.484Z,8.87
2023-02-14T15:52:14.821Z,8.40
2023-02-14T15:55:00.134Z,9.30
2023-02-14T15:57:51.397Z,7.83
2023-02-14T16:00:36.926Z,8.83
2023-02-14T16:03:25.326Z,8.63
2023-02-14T16:06:29.463Z,8.37
2023-02-14T16:09:29.858Z,7.60
2023-02-14T16:12:32.042Z,9.50
2023-02-14T16:15:23.818Z,8.03
2023-02-14T16:18:31.900Z,9.23
2023-02-14T16:21:24.334Z,7.67
2023-02-14T16:24:10.892Z,6.50
2023-02-14T16:26:58.818Z,8.47
2023-02-14T16:29:44.178Z,8.63
2023-02-14T16:32:30.645Z,7.80
2023-02-14T16:35:21.417Z,7.60
2023-02-14T16:38:11.571Z,8.30
2023-02-14T16:40:57.360Z,7.83
2023-02-14T16:43:43.392Z,9.03
2023-02-14T16:46:35.953Z,9.13
2023-02-14T16:49:23.012Z,8.27
2023-02-14T16:52:23.475Z,8.23
2023-02-14T16:55:19.478Z,7.90
2023-02-14T16:58:04.999Z,8.00
2023-02-14T17:00:50.776Z,8.03
2023-02-14T17:03:36.850Z,7.57
2023-02-14T17:06:27.602Z,7.60
2023-02-14T17:09:14.961Z,8.17
2023-02-14T17:12:05.728Z,7.97
2023-02-14T17:14:56.267Z,7.70
2023-02-14T17:17:42.941Z,8.70
2023-02-14T17:20:30.091Z,8.53
2023-02-14T17:23:17.651Z,9.37
2023-02-14T17:26:03.923Z,8.47
2023-02-14T17:28:51.532Z,8.37
2023-02-14T17:31:36.969Z,7.17
2023-02-14T17:34:22.735Z,8.00
2023-02-14T17:37:08.048Z,8.10
2023-02-14T17:39:55.804Z,9.70
2023-02-14T17:42:41.733Z,8.10
2023-02-14T17:45:27.195Z,8.87
2023-02-14T17:48:12.380Z,7.97
2023-02-14T17:50:58.068Z,9.13
2023-02-14T17:53:43.993Z,8.83
2023-02-14T17:56:29.304Z,7.60
2023-02-14T17:59:14.730Z,9.40
2023-02-14T18:02:00.956Z,7.53
2023-02-14T18:04:49.393Z,9.60
2023-02-14T18:07:34.668Z,8.63
2023-02-14T18:10:21.062Z,9.30
2023-02-14T18:13:06.758Z,9.23
2023-02-14T18:15:55.237Z,7.73
2023-02-14T18:18:40.769Z,8.67
2023-02-14T18:21:34.461Z,8.00
2023-02-14T18:24:22.825Z,8.30
2023-02-14T18:27:08.328Z,8.80
2023-02-14T18:29:53.578Z,8.20
2023-02-14T18:32:39.181Z,7.90
2023-02-14T18:35:24.434Z,7.37
2023-02-14T18:38:11.147Z,9.57
2023-02-14T18:41:01.636Z,7.47
2023-02-14T18:43:50.205Z,7.60
2023-02-14T18:46:36.444Z,7.80
2023-02-14T18:49:21.885Z,8.53
2023-02-14T18:52:07.344Z,8.10
2023-02-14T18:54:58.517Z,8.23
2023-02-14T18:57:48.765Z,7.80
2023-02-14T19:00:35.014Z,9.10
2023-02-14T19:03:20.686Z,8.73
2023-02-14T19:06:07.016Z,8.40
2023-02-14T19:08:53.030Z,9.00
2023-02-14T19:11:39.340Z,8.63
2023-02-14T19:14:24.860Z,8.07
2023-02-14T19:17:12.461Z,8.13
2023-02-14T19:19:58.258Z,8.80
2023-02-14T19:22:43.898Z,6.83
2023-02-14T19:25:30.896Z,8.30
2023-02-14T19:28:16.490Z,8.70
2023-02-14T19:31:02.185Z,8.43
2023-02-14T19:33:48.100Z,7.97
2023-02-14T19:36:37.566Z,9.00
2023-02-14T19:39:24.589Z,10.03
2023-02-14T19:42:10.375Z,9.20
2023-02-14T19:44:56.072Z,10.40
2023-02-14T19:47:47.159Z,9.17
2023-02-14T19:50:33.421Z,10.53
2023-02-14T19:53:18.683Z,9.50
2023-02-14T19:56:04.454Z,9.40
2023-02-14T19:58:51.708Z,10.47
2023-02-14T20:01:46.397Z,11.73
2023-02-14T20:04:32.717Z,10.60
2023-02-14T20:07:18.897Z,10.90
2023-02-14T20:10:06.121Z,11.20
2023-02-14T20:12:55.269Z,10.30
2023-02-14T20:15:45.681Z,11.07
2023-02-14T20:18:31.680Z,10.70
2023-02-14T20:21:28.381Z,11.23
2023-02-14T20:24:19.397Z,9.80
2023-02-14T20:27:08.344Z,10.17
2023-02-14T20:29:57.625Z,10.63
2023-02-14T20:32:43.746Z,10.27
2023-02-14T20:35:34.254Z,10.43
2023-02-14T20:38:24.584Z,11.07
2023-02-14T20:41:12.836Z,11.20
2023-02-14T20:44:04.492Z,11.40
2023-02-14T20:46:53.049Z,11.13
2023-02-14T20:49:39.063Z,10.87
2023-02-14T20:52:26.947Z,10.73
2023-02-14T20:55:15.545Z,11.07
2023-02-14T20:58:02.438Z,10.50
2023-02-14T21:00:49.015Z,10.60
2023-02-14T21:03:35.879Z,11.20
2023-02-14T21:06:25.226Z,10.10
2023-02-14T21:09:13.237Z,9.60
2023-02-14T21:11:59.515Z,10.10
2023-02-14T21:14:45.546Z,10.33
2023-02-14T21:17:30.926Z,10.30
2023-02-14T21:20:16.478Z,10.80
2023-02-14T21:23:01.741Z,9.77
2023-02-14T21:25:49.479Z,10.13
2023-02-14T21:28:36.929Z,10.70
2023-02-14T21:31:25.448Z,8.63
2023-02-14T21:34:11.261Z,10.53
2023-02-14T21:36:59.819Z,10.30
2023-02-14T21:39:47.214Z,10.00
2023-02-14T21:42:32.475Z,11.23
2023-02-14T21:45:36.266Z,10.43
2023-02-14T21:48:42.883Z,10.60
2023-02-14T21:51:30.650Z,11.10
2023-02-14T21:54:16.745Z,11.43
2023-02-14T21:57:02.316Z,9.47
2023-02-14T21:59:47.629Z,11.27
2023-02-14T22:02:33.347Z,10.80
2023-02-14T22:05:18.844Z,10.53
2023-02-14T22:08:04.503Z,9.47
2023-02-14T22:10:49.781Z,10.27
2023-02-14T22:13:38.448Z,11.57
2023-02-14T22:16:26.440Z,10.33
2023-02-14T22:19:15.168Z,10.07
2023-02-14T22:22:00.730Z,11.10
2023-02-14T22:24:48.305Z,10.37
2023-02-14T22:27:40.838Z,9.80
2023-02-14T22:30:26.424Z,10.00
2023-02-14T22:33:11.798Z,12.63
2023-02-14T22:35:58.654Z,10.47
2023-02-14T22:38:44.545Z,10.00
2023-02-14T22:41:32.118Z,10.60
2023-02-14T22:44:17.548Z,11.13
2023-02-14T22:47:03.278Z,11.90
2023-02-14T22:49:52.114Z,12.63
2023-02-14T22:52:37.514Z,9.93
2023-02-14T22:55:23.199Z,10.53
2023-02-14T22:58:09.204Z,10.60
2023-02-14T23:00:54.644Z,9.43
2023-02-14T23:03:40.661Z,10.03
2023-02-14T23:06:29.248Z,10.13
2023-02-14T23:09:15.614Z,12.00
2023-02-14T23:12:01.129Z,11.57
2023-02-14T23:15:05.154Z,10.17
2023-02-14T23:18:09.529Z,10.47
2023-02-14T23:21:13.632Z,11.07
2023-02-14T23:24:01.608Z,11.57
2023-02-14T23:26:46.952Z,10.17
2023-02-14T23:29:33.038Z,11.10
2023-02-14T23:32:18.735Z,10.83
2023-02-14T23:35:05.448Z,9.90
2023-02-14T23:37:50.958Z,10.50
2023-02-14T23:40:56.331Z,10.83
2023-02-14T23:43:42.467Z,10.57
2023-02-14T23:46:27.847Z,10.13
2023-02-14T23:49:16.992Z,11.53
2023-02-14T23:52:03.849Z,10.03
2023-02-14T23:54:49.400Z,11.30
2023-02-14T23:57:34.648Z,11.40
